.
WxDataArchive / Data Records for 2007-02-17
2007-02-16 February 2007 2007-02-18

Data Records for Saturday, 17 February 2007

Time	Temp	Chill	HIndex	Humid	Dewpt	 Wind 	HiWind	WindDir	Rain 	Barom 
-----	----	-----	------	-----	-----	------	------	-------	-----	----- 
00:00	10.0	10.0	10.0	73	3.1	0	1	248	0.00	29.875 
00:05	10.0	10.0	10.0	74	3.4	0	1	248	0.00	29.871 
00:10	10.0	10.0	10.0	74	3.4	0	1	248	0.00	29.870 
00:15	10.0	10.0	10.0	74	3.4	0	1	248	0.00	29.868 
00:20	10.0	10.0	10.0	74	3.4	0	1	248	0.00	29.869 
00:25	9.9	9.9	9.9	74	3.3	0	1	248	0.00	29.867 
00:30	9.5	9.5	9.5	74	2.9	0	0	---	0.00	29.865 
00:35	9.3	9.3	9.3	74	2.7	0	1	248	0.00	29.867 
00:40	9.2	9.2	9.2	75	2.9	0	1	248	0.00	29.865 
00:45	9.2	9.2	9.2	75	2.9	0	1	248	0.00	29.863 
00:50	9.2	9.2	9.2	75	2.9	0	0	---	0.00	29.861 
00:55	9.0	9.0	9.0	76	3.0	0	1	248	0.00	29.857 
01:00	8.8	8.8	8.8	75	2.5	0	0	---	0.00	29.851 
01:05	8.6	8.6	8.6	75	2.3	0	1	248	0.00	29.849 
01:10	8.3	8.3	8.3	75	2.0	0	1	248	0.00	29.848 
01:15	8.1	8.1	8.1	76	2.1	0	0	---	0.00	29.845 
01:20	8.1	8.1	8.1	77	2.4	0	0	---	0.00	29.843 
01:25	8.1	8.1	8.1	77	2.4	0	1	248	0.00	29.842 
01:30	8.1	8.1	8.1	77	2.4	0	0	---	0.00	29.843 
01:35	8.1	8.1	8.1	78	2.7	0	0	---	0.00	29.843 
01:40	7.9	7.9	7.9	78	2.5	0	0	---	0.00	29.839 
01:45	7.7	7.7	7.7	78	2.3	0	0	---	0.00	29.834 
01:50	7.7	7.7	7.7	78	2.3	0	0	---	0.00	29.834 
01:55	7.7	7.7	7.7	78	2.3	0	0	---	0.00	29.834 
02:00	7.6	7.6	7.6	79	2.5	0	0	---	0.00	29.832 
02:05	7.7	7.7	7.7	80	2.8	0	0	---	0.00	29.832 
02:10	8.1	8.1	8.1	80	3.2	0	1	248	0.00	29.833 
02:15	8.6	8.6	8.6	80	3.7	0	0	---	0.00	29.830 
02:20	9.2	9.2	9.2	79	4.0	0	0	---	0.00	29.831 
02:25	9.7	9.7	9.7	79	4.5	0	0	---	0.00	29.830 
02:30	9.9	9.9	9.9	78	4.4	0	0	---	0.00	29.829 
02:35	10.2	10.2	10.2	77	4.5	0	0	---	0.00	29.827 
02:40	10.4	10.4	10.4	77	4.6	0	1	248	0.00	29.825 
02:45	10.5	10.5	10.5	77	4.7	0	0	---	0.00	29.821 
02:50	10.5	10.5	10.5	76	4.5	0	0	---	0.00	29.819 
02:55	10.4	10.4	10.4	75	4.1	0	0	---	0.00	29.816 
03:00	10.2	10.2	10.2	75	3.9	0	0	---	0.00	29.816 
03:05	9.9	9.9	9.9	75	3.6	0	0	---	0.00	29.816 
03:10	9.7	9.7	9.7	76	3.7	0	0	---	0.00	29.815 
03:15	9.7	9.7	9.7	76	3.7	0	0	---	0.00	29.815 
03:20	9.7	9.7	9.7	77	4.0	0	0	---	0.00	29.814 
03:25	9.9	9.9	9.9	77	4.2	0	0	---	0.00	29.813 
03:30	10.0	10.0	10.0	77	4.3	0	1	248	0.00	29.810 
03:35	10.4	10.4	10.4	77	4.6	0	0	---	0.00	29.807 
03:40	10.7	10.7	10.7	77	4.9	0	1	248	0.00	29.804 
03:45	11.1	11.1	11.1	76	5.0	0	1	248	0.00	29.802 
03:50	11.4	11.4	11.4	76	5.3	0	1	248	0.00	29.801 
03:55	11.6	11.6	11.6	77	5.8	0	1	248	0.00	29.799 
04:00	11.6	11.6	11.6	77	5.8	0	1	248	0.00	29.795 
04:05	11.7	11.7	11.7	77	5.9	0	0	---	0.00	29.795 
04:10	11.6	11.6	11.6	77	5.8	0	0	---	0.00	29.791 
04:15	11.6	11.6	11.6	77	5.8	0	1	248	0.00	29.786 
04:20	11.4	11.4	11.4	77	5.6	0	1	248	0.00	29.785 
04:25	11.4	11.4	11.4	78	5.9	0	1	248	0.00	29.787 
04:30	11.2	11.2	11.2	78	5.7	0	1	248	0.00	29.785 
04:35	11.2	11.2	11.2	78	5.7	0	0	---	0.00	29.785 
04:40	11.2	11.2	11.2	79	6.0	0	0	---	0.00	29.785 
04:45	11.4	11.4	11.4	79	6.2	0	1	248	0.00	29.784 
04:50	11.4	11.4	11.4	79	6.2	0	1	248	0.00	29.782 
04:55	11.6	11.6	11.6	79	6.4	0	0	---	0.00	29.779 
05:00	11.6	11.6	11.6	80	6.6	0	0	---	0.00	29.774 
05:05	11.7	11.7	11.7	80	6.7	0	0	---	0.00	29.776 
05:10	11.7	11.7	11.7	80	6.7	0	0	---	0.00	29.772 
05:15	11.7	11.7	11.7	80	6.7	0	0	---	0.00	29.773 
05:20	11.7	11.7	11.7	80	6.7	0	1	248	0.00	29.772 
05:25	11.7	11.7	11.7	81	7.0	0	1	248	0.00	29.771 
05:30	11.9	11.9	11.9	81	7.2	0	0	---	0.00	29.770 
05:35	11.9	11.9	11.9	81	7.2	0	0	---	0.00	29.770 
05:40	11.9	11.9	11.9	81	7.2	0	0	---	0.00	29.770 
05:45	11.9	11.9	11.9	82	7.5	0	0	---	0.00	29.769 
05:50	12.1	12.1	12.1	82	7.7	0	0	---	0.00	29.769 
05:55	12.1	12.1	12.1	82	7.7	0	0	---	0.00	29.769 
06:00	12.1	12.1	12.1	82	7.7	0	0	---	0.00	29.769 
06:05	12.3	12.3	12.3	83	8.1	0	0	---	0.00	29.770 
06:10	12.3	12.3	12.3	83	8.1	0	0	---	0.00	29.770 
06:15	12.4	12.4	12.4	83	8.2	0	0	---	0.00	29.769 
06:20	12.6	12.6	12.6	83	8.4	0	0	---	0.00	29.768 
06:25	12.8	12.8	12.8	84	8.9	0	0	---	0.00	29.766 
06:30	12.9	12.9	12.9	84	9.0	0	0	---	0.00	29.765 
06:35	13.1	13.1	13.1	84	9.2	0	0	---	0.00	29.764 
06:40	13.3	13.3	13.3	84	9.4	0	0	---	0.00	29.761 
06:45	13.5	13.5	13.5	85	9.8	0	1	248	0.00	29.759 
06:50	13.6	13.6	13.6	85	9.9	0	1	248	0.00	29.758 
06:55	13.8	13.8	13.8	85	10.1	0	0	---	0.00	29.757 
07:00	14.0	14.0	14.0	85	10.3	0	1	248	0.00	29.757 
07:05	14.1	14.1	14.1	85	10.4	0	0	---	0.00	29.758 
07:10	14.3	14.3	14.3	86	10.9	0	0	---	0.00	29.759 
07:15	14.3	14.3	14.3	86	10.9	0	0	---	0.00	29.760 
07:20	14.4	14.4	14.4	86	11.0	0	0	---	0.00	29.762 
07:25	14.4	14.4	14.4	86	11.0	0	0	---	0.00	29.762 
07:30	14.4	14.4	14.4	86	11.0	0	0	---	0.00	29.763 
07:35	14.6	14.6	14.6	86	11.2	0	0	---	0.00	29.764 
07:40	14.6	14.6	14.6	86	11.2	0	0	---	0.00	29.765 
07:45	14.6	14.6	14.6	86	11.2	0	0	---	0.00	29.764 
07:50	14.6	14.6	14.6	86	11.2	0	0	---	0.00	29.764 
07:55	14.8	14.8	14.8	86	11.4	0	0	---	0.00	29.766 
08:00	14.9	14.9	14.9	86	11.5	0	0	---	0.00	29.766 
08:05	15.1	15.1	15.1	86	11.7	0	0	---	0.00	29.766 
08:10	15.1	15.1	15.1	86	11.7	0	1	248	0.00	29.767 
08:15	15.2	15.2	15.2	86	11.8	0	0	---	0.00	29.767 
08:20	15.4	15.4	15.4	86	12.0	0	0	---	0.00	29.767 
08:25	15.6	15.6	15.6	85	11.9	0	0	---	0.00	29.767 
08:30	15.7	15.7	15.7	85	12.0	0	1	248	0.00	29.765 
08:35	15.9	15.9	15.9	85	12.2	0	1	248	0.00	29.765 
08:40	16.1	16.1	16.1	85	12.4	0	1	248	0.00	29.765 
08:45	16.4	16.4	16.4	85	12.7	0	1	248	0.00	29.765 
08:50	16.5	16.5	16.5	85	12.8	0	0	---	0.00	29.765 
08:55	16.9	16.9	16.9	85	13.2	0	1	248	0.00	29.763 
09:00	17.0	17.0	17.0	85	13.3	0	1	248	0.00	29.762 
09:05	17.3	17.3	17.3	85	13.6	0	1	248	0.00	29.763 
09:10	17.7	17.7	17.7	85	14.0	0	1	248	0.00	29.761 
09:15	18.0	18.0	18.0	85	14.3	0	1	248	0.00	29.761 
09:20	18.3	18.3	18.3	85	14.6	0	1	248	0.00	29.760 
09:25	18.6	18.6	18.6	85	14.9	0	1	248	0.00	29.759 
09:30	18.9	18.9	18.9	85	15.2	0	1	248	0.00	29.762 
09:35	19.4	19.4	19.4	84	15.4	0	0	---	0.00	29.762 
09:40	19.7	19.7	19.7	84	15.7	0	1	248	0.00	29.761 
09:45	19.9	19.9	19.9	84	15.9	0	1	248	0.00	29.760 
09:50	20.2	20.2	20.2	84	16.2	0	0	---	0.00	29.760 
09:55	20.5	20.5	20.5	83	16.2	0	1	248	0.00	29.760 
10:00	20.5	20.5	20.5	83	16.2	0	1	248	0.00	29.760 
10:05	20.8	20.8	20.8	83	16.5	0	1	248	0.00	29.757 
10:10	21.1	21.1	21.1	83	16.8	0	1	248	0.00	29.757 
10:15	21.4	21.4	21.4	83	17.1	0	1	248	0.00	29.757 
10:20	21.8	21.8	21.8	84	17.7	0	1	248	0.00	29.758 
10:25	22.2	22.2	22.2	83	17.8	0	1	248	0.00	29.759 
10:30	22.5	22.5	22.5	83	18.1	0	1	248	0.00	29.757 
10:35	23.0	23.0	23.0	82	18.3	0	1	248	0.00	29.755 
10:40	23.5	23.5	23.5	82	18.8	0	1	248	0.00	29.755 
10:45	23.6	23.6	23.6	80	18.4	1	2	248	0.00	29.755 
10:50	23.8	23.8	23.8	80	18.5	1	3	248	0.00	29.756 
10:55	23.9	23.9	23.9	80	18.6	0	2	248	0.00	29.755 
11:00	24.4	24.4	24.4	80	19.1	1	3	248	0.00	29.756 
11:05	25.0	25.0	25.0	80	19.7	0	2	248	0.00	29.756 
11:10	25.3	25.3	25.3	78	19.4	1	3	248	0.00	29.755 
11:15	25.4	25.4	25.4	78	19.5	0	2	248	0.00	29.755 
11:20	25.6	25.6	25.6	77	19.4	1	4	248	0.00	29.753 
11:25	25.4	25.4	25.4	77	19.2	2	4	248	0.00	29.753 
11:30	25.3	25.3	25.3	78	19.4	2	6	248	0.00	29.756 
11:35	25.3	25.3	25.3	78	19.4	1	4	248	0.00	29.756 
11:40	25.6	25.6	25.6	79	20.0	0	2	248	0.00	29.754 
11:45	25.6	25.6	25.6	78	19.7	0	1	248	0.00	29.755 
11:50	25.6	25.6	25.6	78	19.7	1	4	248	0.00	29.755 
11:55	25.7	25.7	25.7	78	19.8	1	2	248	0.00	29.754 
12:00	25.8	25.8	25.8	77	19.6	1	4	248	0.00	29.753 
12:05	26.0	26.0	26.0	78	20.1	0	2	248	0.00	29.755 
12:10	26.3	26.3	26.3	78	20.4	1	2	292	0.00	29.753 
12:15	26.7	26.7	26.7	77	20.5	1	4	248	0.00	29.751 
12:20	27.2	27.2	27.2	76	20.7	1	4	248	0.00	29.750 
12:25	27.3	27.3	27.3	75	20.4	1	3	248	0.00	29.748 
12:30	27.5	27.5	27.5	75	20.6	1	3	248	0.00	29.743 
12:35	27.3	27.3	27.3	75	20.4	1	3	248	0.00	29.743 
12:40	26.9	26.9	26.9	76	20.4	1	3	292	0.00	29.741 
12:45	27.2	27.2	27.2	76	20.7	2	5	248	0.00	29.740 
12:50	27.2	27.2	27.2	76	20.7	1	4	248	0.00	29.740 
12:55	27.0	27.0	27.0	76	20.5	1	4	338	0.00	29.740 
13:00	27.0	27.0	27.0	75	20.2	1	3	270	0.00	29.739 
13:05	27.0	27.0	27.0	76	20.5	1	2	248	0.00	29.741 
13:10	27.2	27.2	27.2	76	20.7	1	3	248	0.00	29.740 
13:15	27.3	27.3	27.3	76	20.8	1	2	292	0.00	29.738 
13:20	27.3	27.3	27.3	75	20.4	1	3	338	0.00	29.737 
13:25	27.2	27.2	27.2	74	20.0	1	4	248	0.00	29.736 
13:30	27.0	27.0	27.0	73	19.5	1	3	0	0.00	29.734 
13:35	27.2	27.2	27.2	74	20.0	1	3	315	0.00	29.735 
13:40	27.5	27.5	27.5	72	19.7	1	2	292	0.00	29.732 
13:45	27.3	27.3	27.3	73	19.8	1	2	338	0.00	29.734 
13:50	26.9	26.9	26.9	73	19.4	1	4	292	0.00	29.733 
13:55	27.0	27.0	27.0	74	19.8	1	4	248	0.00	29.733 
14:00	26.9	26.9	26.9	75	20.1	1	3	0	0.00	29.737 
14:05	26.9	26.9	26.9	76	20.4	1	5	292	0.00	29.734 
14:10	26.9	26.9	26.9	76	20.4	1	6	292	0.00	29.736 
14:15	26.7	26.7	26.7	75	19.9	1	3	338	0.00	29.736 
14:20	26.7	26.7	26.7	76	20.2	1	3	315	0.00	29.736 
14:25	26.7	26.7	26.7	76	20.2	1	4	338	0.00	29.736 
14:30	27.0	27.0	27.0	76	20.5	1	3	270	0.00	29.736 
14:35	27.0	27.0	27.0	75	20.2	1	3	292	0.00	29.737 
14:40	27.6	27.6	27.6	75	20.7	1	3	292	0.00	29.738 
14:45	27.9	27.9	27.9	74	20.7	1	2	292	0.00	29.736 
14:50	28.1	28.1	28.1	73	20.6	1	3	292	0.00	29.737 
14:55	27.5	27.5	27.5	73	20.0	2	5	338	0.00	29.737 
15:00	27.8	27.8	27.8	74	20.6	1	2	315	0.00	29.737 
15:05	27.6	27.6	27.6	73	20.1	1	4	0	0.00	29.735 
15:10	27.5	27.5	27.5	75	20.6	1	5	270	0.00	29.737 
15:15	27.5	27.5	27.5	75	20.6	1	3	248	0.00	29.737 
15:20	27.3	27.3	27.3	75	20.4	1	4	338	0.00	29.738 
15:25	27.2	27.2	27.2	77	21.0	0	2	338	0.00	29.745 
15:30	27.2	27.2	27.2	76	20.7	1	6	292	0.00	29.747 
15:35	27.3	27.3	27.3	77	21.1	1	5	248	0.00	29.749 
15:40	27.3	27.3	27.3	76	20.8	1	4	315	0.00	29.750 
15:45	27.2	27.2	27.2	75	20.3	1	6	338	0.00	29.752 
15:50	26.9	26.9	26.9	73	19.4	2	5	338	0.00	29.754 
15:55	26.7	26.7	26.7	71	18.6	2	5	338	0.00	29.754 
16:00	26.7	26.7	26.7	70	18.3	1	3	0	0.00	29.755 
16:05	27.0	27.0	27.0	71	18.9	1	5	0	0.00	29.756 
16:10	26.9	26.9	26.9	70	18.4	1	3	315	0.00	29.759 
16:15	26.7	26.7	26.7	70	18.3	2	4	315	0.00	29.765 
16:20	26.7	26.7	26.7	70	18.3	2	5	270	0.00	29.765 
16:25	26.7	26.7	26.7	70	18.3	2	5	292	0.00	29.766 
16:30	26.9	26.9	26.9	70	18.4	1	3	292	0.00	29.766 
16:35	26.9	26.9	26.9	70	18.4	1	5	315	0.00	29.768 
16:40	26.9	26.9	26.9	71	18.8	1	4	315	0.00	29.769 
16:45	26.9	26.9	26.9	72	19.1	1	4	292	0.00	29.770 
16:50	26.9	26.9	26.9	72	19.1	2	3	270	0.00	29.772 
16:55	26.9	26.9	26.9	73	19.4	1	3	315	0.00	29.776 
17:00	26.9	26.9	26.9	73	19.4	1	4	270	0.00	29.777 
17:05	26.9	26.9	26.9	73	19.4	1	2	315	0.00	29.780 
17:10	26.7	26.7	26.7	72	18.9	1	3	270	0.00	29.781 
17:15	26.6	26.6	26.6	72	18.8	1	3	338	0.00	29.785 
17:20	26.6	26.6	26.6	72	18.8	1	3	292	0.00	29.785 
17:25	26.6	26.6	26.6	73	19.1	1	3	270	0.00	29.787 
17:30	26.4	26.4	26.4	73	18.9	1	5	292	0.00	29.793 
17:35	26.4	26.4	26.4	73	18.9	1	2	292	0.00	29.797 
17:40	26.1	26.1	26.1	72	18.3	2	4	292	0.00	29.800 
17:45	25.8	25.8	25.8	72	18.0	2	6	270	0.00	29.802 
17:50	25.6	25.6	25.6	72	17.8	2	6	338	0.00	29.803 
17:55	25.4	25.4	25.4	72	17.7	1	3	270	0.00	29.805 
18:00	25.3	25.3	25.3	72	17.6	1	3	315	0.00	29.812 
18:05	25.1	25.1	25.1	72	17.4	1	3	292	0.00	29.814 
18:10	24.8	24.8	24.8	73	17.4	0	2	315	0.00	29.816 
18:15	24.7	24.7	24.7	72	17.0	0	2	270	0.00	29.818 
18:20	24.5	24.5	24.5	72	16.8	1	2	270	0.00	29.820 
18:25	24.4	24.4	24.4	72	16.7	0	1	292	0.00	29.827 
18:30	24.1	24.1	24.1	73	16.7	0	2	292	0.00	29.831 
18:35	23.9	23.9	23.9	73	16.5	0	1	292	0.00	29.833 
18:40	23.8	23.8	23.8	73	16.4	0	2	292	0.00	29.834 
18:45	23.6	23.6	23.6	74	16.6	0	1	292	0.00	29.839 
18:50	23.5	23.5	23.5	74	16.5	0	1	292	0.00	29.842 
18:55	23.5	23.5	23.5	75	16.8	0	1	292	0.00	29.846 
19:00	23.6	23.6	23.6	75	16.9	0	1	292	0.00	29.848 
19:05	23.6	23.6	23.6	75	16.9	0	1	292	0.00	29.849 
19:10	23.8	23.8	23.8	75	17.1	0	1	292	0.00	29.852 
19:15	23.9	23.9	23.9	76	17.5	0	2	315	0.00	29.855 
19:20	24.1	24.1	24.1	76	17.7	1	3	225	0.00	29.857 
19:25	24.2	24.2	24.2	77	18.1	0	2	248	0.00	29.860 
19:30	24.2	24.2	24.2	79	18.6	1	3	270	0.00	29.861 
19:35	24.2	24.2	24.2	80	18.9	1	4	270	0.00	29.862 
19:40	24.1	24.1	24.1	81	19.1	0	1	315	0.00	29.864 
19:45	24.1	24.1	24.1	82	19.4	0	2	315	0.00	29.866 
19:50	24.1	24.1	24.1	83	19.7	1	4	270	0.00	29.867 
19:55	24.1	24.1	24.1	84	20.0	1	5	248	0.00	29.871 
20:00	24.1	24.1	24.1	84	20.0	1	5	292	0.00	29.873 
20:05	24.2	24.2	24.2	84	20.1	1	5	315	0.00	29.872 
20:10	24.2	24.2	24.2	84	20.1	1	3	315	0.00	29.876 
20:15	24.4	24.4	24.4	84	20.3	1	3	338	0.00	29.877 
20:20	24.4	24.4	24.4	83	20.0	1	3	338	0.00	29.878 
20:25	24.5	24.5	24.5	83	20.1	1	2	315	0.00	29.878 
20:30	24.7	24.7	24.7	81	19.7	1	3	315	0.00	29.879 
20:35	24.8	24.8	24.8	81	19.8	1	3	315	0.00	29.881 
20:40	24.8	24.8	24.8	80	19.5	1	4	270	0.00	29.884 
20:45	24.8	24.8	24.8	80	19.5	1	3	270	0.00	29.888 
20:50	24.8	24.8	24.8	79	19.2	0	2	315	0.00	29.890 
20:55	24.7	24.7	24.7	78	18.8	2	4	270	0.00	29.891 
21:00	24.7	24.7	24.7	76	18.2	2	7	338	0.00	29.893 
21:05	24.7	24.7	24.7	77	18.5	1	5	338	0.00	29.890 
21:10	24.7	24.7	24.7	77	18.5	2	6	292	0.00	29.893 
21:15	24.5	24.5	24.5	78	18.6	2	4	338	0.00	29.898 
21:20	24.4	24.4	24.4	78	18.5	2	9	292	0.00	29.901 
21:25	24.4	24.4	24.4	79	18.8	2	6	270	0.00	29.903 
21:30	24.2	24.2	24.2	80	18.9	2	5	338	0.00	29.905 
21:35	24.1	24.1	24.1	81	19.1	1	5	338	0.00	29.905 
21:40	23.9	23.9	23.9	81	18.9	2	5	270	0.00	29.906 
21:45	23.8	23.8	23.8	81	18.8	1	3	338	0.00	29.907 
21:50	23.8	23.8	23.8	80	18.5	2	6	248	0.00	29.907 
21:55	23.8	23.8	23.8	81	18.8	1	4	315	0.00	29.911 
22:00	23.6	23.6	23.6	81	18.6	2	5	338	0.00	29.914 
22:05	23.6	23.6	23.6	81	18.6	1	5	270	0.00	29.913 
22:10	23.5	23.5	23.5	81	18.5	1	3	315	0.00	29.915 
22:15	23.5	23.5	23.5	80	18.3	1	3	315	0.00	29.917 
22:20	23.5	23.5	23.5	78	17.7	1	4	315	0.00	29.917 
22:25	23.5	23.5	23.5	78	17.7	1	3	315	0.00	29.917 
22:30	23.5	23.5	23.5	78	17.7	1	3	248	0.00	29.917 
22:35	23.5	23.5	23.5	77	17.4	1	3	292	0.00	29.917 
22:40	23.5	23.5	23.5	78	17.7	1	4	270	0.00	29.918 
22:45	23.3	23.3	23.3	78	17.5	1	3	270	0.00	29.919 
22:50	23.2	23.2	23.2	78	17.4	0	2	338	0.00	29.919 
22:55	23.0	23.0	23.0	78	17.2	0	1	338	0.00	29.920 
23:00	22.9	22.9	22.9	78	17.1	1	2	270	0.00	29.920 
23:05	22.9	22.9	22.9	78	17.1	1	2	270	0.00	29.918 
23:10	22.9	22.9	22.9	78	17.1	0	3	270	0.00	29.918 
23:15	22.7	22.7	22.7	78	16.9	0	3	270	0.00	29.919 
23:20	22.7	22.7	22.7	79	17.2	1	2	248	0.00	29.919 
23:25	22.7	22.7	22.7	79	17.2	1	3	248	0.00	29.919 
23:30	22.7	22.7	22.7	80	17.5	1	3	248	0.00	29.919 
23:35	22.5	22.5	22.5	81	17.6	1	3	248	0.00	29.919 
23:40	22.5	22.5	22.5	81	17.6	1	3	248	0.00	29.919 
23:45	22.5	22.5	22.5	81	17.6	1	2	248	0.00	29.919 
23:50	22.5	22.5	22.5	82	17.9	0	1	248	0.00	29.919 
23:55	22.5	22.5	22.5	82	17.9	1	3	248	0.00	29.919 

CoCoRaHS
IN-AL-39
A2 Web Hosting
Creative Commons License
GoDaddy
Look for:

loaded 2017-12-13 16:05:35 • last modified 2010-11-18 10:43:29
Privacy PolicyDisclaimer
• wx.awcolley.com is powered by PmWiki v.2002016 •
• all content (unless otherwise noted) © 2017 A W Colley